Time;durP1;ratioP1;P1;durP2;ratioP2;P2;SDS_P1;SDS_P2;PMS_P1;PMS_P2;Temp;Humidity;BMP_temperature;BMP_pressure;BME280_temperature;BME280_humidity;BME280_pressure;Samples;Min_cycle;Max_cycle;Signal;HPM_P1;HPM_P2
2023/07/02 00:02:17;;;;;;;15.32;7.50;;;;;;;19.35;85.16;94173.06;4935518;29;20691;-87
2023/07/02 00:04:43;;;;;;;15.57;7.82;;;;;;;19.69;85.19;94227.22;4934176;29;20737;-88
2023/07/02 00:07:08;;;;;;;16.92;7.53;;;;;;;19.41;85.02;94178.06;4935575;29;20241;-88
2023/07/02 00:09:34;;;;;;;12.05;6.72;;;;;;;19.40;85.13;94173.00;4935836;29;20183;-88
2023/07/02 00:11:59;;;;;;;11.27;6.78;;;;;;;19.34;84.79;94172.28;4950173;29;20272;-88
2023/07/02 00:14:25;;;;;;;12.48;5.80;;;;;;;18.92;85.61;94119.56;4935531;29;20163;-88
2023/07/02 00:16:50;;;;;;;12.82;5.97;;;;;;;18.82;85.45;94106.31;4935513;29;20218;-88
2023/07/02 00:19:16;;;;;;;10.68;6.03;;;;;;;19.23;86.30;94171.56;4935420;29;20184;-87
2023/07/02 00:21:42;;;;;;;10.73;5.85;;;;;;;;;;4935257;29;20650;-87
2023/07/02 00:24:11;;;;;;;11.52;6.30;;;;;;;18.88;86.36;94113.19;4950287;29;20175;-87
2023/07/02 00:26:38;;;;;;;14.35;6.13;;;;;;;18.76;86.59;94099.44;4935151;29;20175;-86
2023/07/02 00:29:05;;;;;;;12.43;6.20;;;;;;;19.47;86.85;94218.84;4935211;29;20231;-87
2023/07/02 00:31:31;;;;;;;13.00;5.78;;;;;;;19.45;87.01;94215.69;4933075;29;20678;-87
2023/07/02 00:33:57;;;;;;;13.52;6.65;;;;;;;19.15;86.81;94166.84;4933672;29;20716;-86
2023/07/02 00:36:22;;;;;;;10.60;6.78;;;;;;;19.26;86.75;94188.09;4933771;29;20171;-86
2023/07/02 00:38:49;;;;;;;9.85;7.07;;;;;;;19.35;86.55;94197.91;4935573;29;20155;-87
2023/07/02 00:41:16;;;;;;;11.05;7.32;;;;;;;19.28;86.75;94197.44;4949648;29;20230;-88
2023/07/02 00:43:44;;;;;;;13.88;7.88;;;;;;;19.44;86.98;94235.47;4949741;29;20987;-87
2023/07/02 00:46:17;;;;;;;14.95;7.07;;;;;;;19.45;86.93;94231.72;4949724;29;20175;-88
2023/07/02 00:48:47;;;;;;;12.73;7.15;;;;;;;19.18;87.40;94186.84;4935011;29;20204;-87
2023/07/02 00:51:19;;;;;;;14.90;7.35;;;;;;;19.27;86.97;94203.06;4935035;29;20674;-88
2023/07/02 00:53:46;;;;;;;12.88;8.32;;;;;;;19.51;87.49;94239.41;4934857;29;20175;-88
2023/07/02 00:56:12;;;;;;;12.95;7.38;;;;;;;19.10;87.45;94180.25;4949474;29;20367;-88
2023/07/02 00:58:48;;;;;;;12.40;7.13;;;;;;;19.47;87.74;94227.69;4934916;29;20643;-87
2023/07/02 01:01:21;;;;;;;8.70;5.93;;;;;;;19.36;88.05;94212.84;4933477;29;20554;-87
2023/07/02 01:03:54;;;;;;;9.52;5.45;;;;;;;19.19;88.30;94172.44;4947963;29;20441;-87
2023/07/02 01:06:24;;;;;;;9.57;5.13;;;;;;;19.20;87.20;94182.00;4934896;29;20440;-88
2023/07/02 01:09:01;;;;;;;10.02;5.00;;;;;;;19.31;87.47;94201.41;4948385;29;20565;-87
2023/07/02 01:11:38;;;;;;;7.32;4.05;;;;;;;19.47;87.00;94218.84;4934781;29;20206;-88
2023/07/02 01:14:09;;;;;;;8.40;5.03;;;;;;;19.12;87.17;94170.06;4948056;29;20417;-87
2023/07/02 01:16:36;;;;;;;8.05;4.10;;;;;;;19.23;86.45;94165.44;4934593;29;20643;-88
2023/07/02 01:19:06;;;;;;;7.30;4.18;;;;;;;19.07;85.90;94139.97;4949520;29;20186;-87
2023/07/02 01:21:33;;;;;;;5.82;3.78;;;;;;;19.59;86.29;94214.78;4933317;29;20219;-87
2023/07/02 01:24:03;;;;;;;6.47;3.80;;;;;;;19.28;86.03;94154.72;4949188;29;20266;-87
2023/07/02 01:26:36;;;;;;;9.25;4.65;;;;;;;19.24;86.53;94135.00;4934525;29;20159;-87
2023/07/02 01:29:18;;;;;;;6.25;3.83;;;;;;;19.65;86.36;94180.00;4934411;29;20166;-87
2023/07/02 01:31:44;;;;;;;8.48;4.45;;;;;;;19.13;85.69;94114.81;4949066;29;20253;-86
2023/07/02 01:34:10;;;;;;;7.75;4.45;;;;;;;19.18;85.54;94139.59;4949104;29;20179;-87
2023/07/02 01:36:36;;;;;;;7.25;4.68;;;;;;;19.37;85.69;94157.59;4934472;29;20181;-87
2023/07/02 01:39:03;;;;;;;9.05;4.97;;;;;;;19.19;85.45;94149.22;4934451;29;20731;-87
2023/07/02 01:41:28;;;;;;;9.52;5.05;;;;;;;19.13;86.96;94144.97;4933559;29;20417;-88
2023/07/02 01:43:53;;;;;;;9.48;4.93;;;;;;;18.91;86.01;94099.31;4935064;29;20938;-87
2023/07/02 01:46:19;;;;;;;9.98;4.13;;;;;;;19.37;85.31;94165.59;4952937;29;20234;-88
2023/07/02 01:48:44;;;;;;;8.45;4.32;;;;;;;19.08;85.89;94131.69;4952813;29;20190;-88
2023/07/02 01:51:10;;;;;;;7.75;4.75;;;;;;;19.38;85.60;94178.63;4938069;29;20576;-88
2023/07/02 01:53:35;;;;;;;8.95;4.93;;;;;;;19.28;85.64;94165.41;4951953;29;20516;-87
2023/07/02 01:56:01;;;;;;;7.15;4.38;;;;;;;19.27;86.42;94157.69;4937690;29;20317;-87
2023/07/02 01:58:26;;;;;;;6.57;3.97;;;;;;;19.21;86.21;94143.56;4936889;29;20186;-89
2023/07/02 02:00:51;;;;;;;11.40;4.90;;;;;;;19.00;86.01;94086.94;4951933;29;20881;-88
2023/07/02 02:03:18;;;;;;;8.27;5.50;;;;;;;19.12;85.69;94100.69;4951755;29;20436;-87
2023/07/02 02:05:43;;;;;;;10.73;5.00;;;;;;;19.19;86.19;94133.19;4939668;29;21020;-90
2023/07/02 02:08:09;;;;;;;7.88;5.10;;;;;;;19.06;86.75;94120.50;4936806;29;20436;-89
2023/07/02 02:10:34;;;;;;;7.47;4.90;;;;;;;19.14;86.80;94146.56;4936381;29;20457;-88
2023/07/02 02:12:59;;;;;;;7.90;4.93;;;;;;;18.93;86.78;94099.03;4937329;29;20191;-88
2023/07/02 02:15:25;;;;;;;9.30;4.47;;;;;;;19.19;86.68;94149.22;4937819;29;20602;-88
2023/07/02 02:17:50;;;;;;;10.65;5.50;;;;;;;18.95;87.97;94143.00;4936664;29;21317;-88
2023/07/02 02:20:16;;;;;;;12.40;4.53;;;;;;;18.77;87.68;94101.81;4937993;29;20216;-88
2023/07/02 02:22:41;;;;;;;17.70;4.55;;;;;;;18.68;87.62;94058.16;4936577;29;20262;-87
2023/07/02 02:25:07;;;;;;;7.18;5.03;;;;;;;19.34;87.38;94166.16;4937910;29;20242;-88
2023/07/02 02:27:33;;;;;;;10.88;5.47;;;;;;;19.09;86.24;94122.63;4937658;29;20173;-88
2023/07/02 02:29:58;;;;;;;8.38;5.28;;;;;;;18.76;86.87;94078.13;4934852;29;20213;-88
2023/07/02 02:32:24;;;;;;;6.38;4.63;;;;;;;18.97;86.85;94100.03;4933522;29;20195;-88
2023/07/02 02:34:49;;;;;;;9.40;4.85;;;;;;;19.05;86.51;94112.78;4933815;29;20187;-88
2023/07/02 02:37:14;;;;;;;11.48;6.15;;;;;;;18.99;86.11;94117.38;4951167;29;20183;-87
2023/07/02 02:39:40;;;;;;;14.98;6.38;;;;;;;18.97;86.47;94130.19;4935850;29;20194;-88
2023/07/02 02:42:05;;;;;;;10.37;6.30;;;;;;;18.57;86.59;94074.53;4936337;29;20481;-87
2023/07/02 02:44:32;;;;;;;12.80;6.77;;;;;;;18.42;86.65;94068.22;4936307;29;20943;-89
2023/07/02 02:46:57;;;;;;;11.95;7.30;;;;;;;18.41;87.85;94084.50;4950021;29;20456;-87
2023/07/02 02:49:23;;;;;;;9.85;6.15;;;;;;;18.92;86.90;94164.13;4935059;29;20214;-87
2023/07/02 02:51:48;;;;;;;9.50;5.85;;;;;;;18.25;87.15;94089.13;4936475;29;20302;-88
2023/07/02 02:54:14;;;;;;;14.10;6.63;;;;;;;18.66;87.56;94150.19;4936447;29;20191;-88
2023/07/02 02:56:39;;;;;;;14.07;6.03;;;;;;;18.41;87.28;94103.97;4935235;29;20178;-88
2023/07/02 02:59:05;;;;;;;9.60;6.15;;;;;;;18.56;87.20;94121.69;4951567;29;20574;-88
2023/07/02 03:01:30;;;;;;;11.32;6.47;;;;;;;18.35;87.67;94090.94;4937138;29;20159;-88
2023/07/02 03:03:58;;;;;;;10.80;6.13;;;;;;;18.95;87.97;94187.56;4935535;29;20984;-88
2023/07/02 03:06:24;;;;;;;13.63;5.30;;;;;;;18.98;86.39;94174.47;4951492;29;20182;-87
2023/07/02 03:08:49;;;;;;;9.88;5.15;;;;;;;18.61;86.02;94103.03;4936755;29;20183;-88
2023/07/02 03:11:15;;;;;;;11.70;6.00;;;;;;;18.75;86.17;94136.00;4936778;29;20597;-88
2023/07/02 03:13:40;;;;;;;9.43;4.95;;;;;;;18.76;86.19;94128.78;4936809;29;20639;-86
2023/07/02 03:16:06;;;;;;;9.05;4.88;;;;;;;19.05;85.79;94168.81;4951330;29;20179;-86
2023/07/02 03:18:31;;;;;;;10.63;5.10;;;;;;;19.02;86.38;94174.72;4935981;29;20420;-86
2023/07/02 03:20:57;;;;;;;9.47;5.57;;;;;;;18.94;86.21;94189.41;4935627;29;20463;-86
2023/07/02 03:23:22;;;;;;;20.23;11.13;;;;;;;18.41;86.82;94106.63;4936547;29;20185;-86
2023/07/02 03:25:47;;;;;;;20.30;10.10;;;;;;;18.83;86.37;94155.94;4936511;29;20170;-86
2023/07/02 03:28:13;;;;;;;18.50;8.82;;;;;;;19.25;86.26;94194.53;4936527;29;20167;-86
2023/07/02 03:30:38;;;;;;;18.10;9.80;;;;;;;19.15;86.04;94160.72;4936300;29;20199;-87
2023/07/02 03:33:04;;;;;;;14.68;8.80;;;;;;;19.48;85.74;94199.13;4951075;29;20174;-86
2023/07/02 03:35:29;;;;;;;15.48;5.95;;;;;;;18.95;85.62;94105.66;4935739;29;20731;-86
2023/07/02 03:37:54;;;;;;;11.30;6.07;;;;;;;19.11;85.56;94149.78;4950102;29;20195;-87
2023/07/02 03:40:20;;;;;;;28.83;14.52;;;;;;;19.28;85.92;94169.94;4935584;29;20206;-87
2023/07/02 03:42:45;;;;;;;27.73;12.07;;;;;;;19.22;86.27;94153.16;4935753;29;20206;-87
2023/07/02 03:45:11;;;;;;;15.80;9.82;;;;;;;19.25;86.38;94143.81;4936056;29;20183;-87
2023/07/02 03:47:36;;;;;;;14.45;7.18;;;;;;;;;;4936071;29;20233;-87
2023/07/02 03:50:01;;;;;;;12.40;6.47;;;;;;;19.76;86.35;94190.28;4935937;29;20199;-88
2023/07/02 03:52:27;;;;;;;8.27;6.15;;;;;;;19.52;85.33;94136.88;4949835;29;20190;-87
2023/07/02 03:54:52;;;;;;;8.00;5.10;;;;;;;19.80;83.70;94172.63;4934812;29;20198;-87
2023/07/02 03:57:18;;;;;;;14.90;8.35;;;;;;;19.81;84.38;94163.50;4949612;29;20187;-88
2023/07/02 03:59:44;;;;;;;10.25;6.43;;;;;;;20.05;82.85;94192.91;4935123;29;20210;-83
2023/07/02 04:02:10;;;;;;;23.08;8.25;;;;;;;20.04;82.77;94191.31;4949789;29;20205;-83
2023/07/02 04:04:35;;;;;;;19.88;8.07;;;;;;;20.02;83.81;94188.13;4934863;29;20993;-82
2023/07/02 04:07:01;;;;;;;11.20;6.38;;;;;;;20.00;83.79;94176.13;4934780;29;20201;-82
2023/07/02 04:09:26;;;;;;;10.50;5.80;;;;;;;20.15;83.58;94198.09;4949709;29;20179;-84
2023/07/02 04:11:51;;;;;;;8.82;4.82;;;;;;;19.87;83.07;94169.59;4935498;29;20614;-84
2023/07/02 04:14:17;;;;;;;10.05;4.57;;;;;;;20.06;83.79;94189.16;4933946;29;20190;-83
2023/07/02 04:16:45;;;;;;;12.50;7.10;;;;;;;19.90;83.98;94171.69;4934822;29;20265;-83
2023/07/02 04:19:11;;;;;;;14.85;5.40;;;;;;;19.96;83.54;94216.78;4934544;29;20190;-83
2023/07/02 04:21:36;;;;;;;16.55;4.82;;;;;;;19.72;84.62;94191.94;4934715;29;20175;-83
2023/07/02 04:24:01;;;;;;;12.73;6.45;;;;;;;20.02;84.93;94216.72;4934740;29;20243;-83
2023/07/02 04:26:27;;;;;;;10.98;6.50;;;;;;;19.64;85.22;94165.03;4935861;29;20163;-83
2023/07/02 04:28:55;;;;;;;13.90;6.45;;;;;;;19.97;84.80;94233.63;4935812;29;20168;-81
2023/07/02 04:31:21;;;;;;;12.65;6.70;;;;;;;19.92;84.90;94222.97;4949917;29;20199;-80
2023/07/02 04:33:47;;;;;;;18.67;11.43;;;;;;;19.81;85.37;94208.91;4934852;29;20189;-80
2023/07/02 04:36:12;;;;;;;23.35;13.68;;;;;;;19.89;85.70;94224.31;4934892;29;20722;-83
2023/07/02 04:38:39;;;;;;;21.95;9.38;;;;;;;19.98;84.98;94253.91;4934285;29;20186;-83
2023/07/02 04:41:05;;;;;;;16.00;7.68;;;;;;;19.75;85.12;94211.94;4934617;29;20183;-82
2023/07/02 04:43:33;;;;;;;24.40;13.40;;;;;;;20.01;84.97;94252.53;4935128;29;20525;-82
2023/07/02 04:45:59;;;;;;;19.90;9.65;;;;;;;20.06;85.00;94247.94;4935517;29;20172;-82
2023/07/02 04:48:24;;;;;;;17.20;10.23;;;;;;;19.76;85.52;94198.31;4935418;29;20181;-82
2023/07/02 04:50:50;;;;;;;23.38;10.52;;;;;;;20.09;84.96;94255.38;4934896;29;20192;-82
2023/07/02 04:53:15;;;;;;;18.88;9.00;;;;;;;19.95;84.75;94231.22;4935391;29;20175;-86
2023/07/02 04:55:41;;;;;;;12.95;7.85;;;;;;;19.73;84.52;94192.72;4934897;29;20252;-85
2023/07/02 04:58:07;;;;;;;16.83;7.05;;;;;;;19.79;84.85;94197.75;4933923;29;20167;-85
2023/07/02 05:00:32;;;;;;;11.35;7.63;;;;;;;19.92;85.29;94215.75;4934006;29;20575;-85
2023/07/02 05:02:58;;;;;;;10.45;6.18;;;;;;;20.03;84.23;94215.66;4948982;29;20201;-84
2023/07/02 05:05:23;;;;;;;10.63;6.22;;;;;;;20.29;84.25;94257.03;4933663;29;20287;-86
2023/07/02 05:07:49;;;;;;;17.77;5.95;;;;;;;20.17;82.26;94246.72;4933692;29;20269;-84
2023/07/02 05:10:14;;;;;;;15.07;9.35;;;;;;;20.02;82.94;94233.56;4934589;29;20194;-85
2023/07/02 05:12:40;;;;;;;15.43;6.68;;;;;;;20.17;83.34;94260.09;4934630;29;20166;-83
2023/07/02 05:15:06;;;;;;;9.90;5.95;;;;;;;19.91;83.17;94216.84;4933287;29;20237;-83
2023/07/02 05:17:34;;;;;;;15.95;9.07;;;;;;;19.86;83.79;94206.22;4934825;29;20187;-84
2023/07/02 05:20:00;;;;;;;12.85;6.95;;;;;;;20.18;83.96;94244.84;4940036;29;20182;-83
2023/07/02 05:22:26;;;;;;;11.48;6.72;;;;;;;20.37;83.04;94266.31;4954549;29;20321;-80
2023/07/02 05:24:51;;;;;;;9.10;5.57;;;;;;;20.39;81.73;94258.81;4940191;29;20273;-81
2023/07/02 05:27:16;;;;;;;12.48;5.50;;;;;;;20.37;81.94;94266.31;4940777;29;20587;-81
2023/07/02 05:29:43;;;;;;;13.18;5.78;;;;;;;20.19;82.05;94247.25;4940918;29;20185;-81
2023/07/02 05:32:08;;;;;;;9.38;5.50;;;;;;;20.05;81.95;94249.03;4940886;29;20190;-83
2023/07/02 05:34:34;;;;;;;12.40;6.18;;;;;;;20.17;82.46;94260.09;4940955;29;20170;-82
2023/07/02 05:36:59;;;;;;;12.70;5.47;;;;;;;20.13;82.30;94269.78;4940285;29;20189;-82
2023/07/02 05:39:24;;;;;;;16.70;6.50;;;;;;;20.05;82.65;94249.03;4939930;29;20578;-82
2023/07/02 05:41:50;;;;;;;22.77;12.80;;;;;;;20.33;83.32;94277.53;4940083;29;20658;-81
2023/07/02 05:44:15;;;;;;;17.48;6.50;;;;;;;20.33;82.04;94274.88;4940105;29;20210;-83
2023/07/02 05:46:41;;;;;;;20.95;13.07;;;;;;;20.46;82.62;94284.13;4940152;29;20190;-80
2023/07/02 05:49:06;;;;;;;11.38;6.57;;;;;;;20.26;83.15;94239.69;4940444;29;20181;-82
2023/07/02 05:51:31;;;;;;;14.05;6.25;;;;;;;20.62;83.20;94287.41;4940971;29;20615;-80
2023/07/02 05:53:57;;;;;;;14.55;7.07;;;;;;;20.65;81.37;94292.19;4940824;29;20181;-80
2023/07/02 05:56:22;;;;;;;12.95;6.75;;;;;;;20.74;81.99;94287.78;4940962;29;20171;-80
2023/07/02 05:58:49;;;;;;;11.55;6.53;;;;;;;20.89;82.08;94278.75;4940115;29;20191;-80
2023/07/02 06:01:14;;;;;;;23.35;9.38;;;;;;;21.03;81.57;94287.63;4939863;29;20187;-79
2023/07/02 06:03:40;;;;;;;20.25;13.30;;;;;;;21.22;81.52;94285.78;4939945;29;20351;-80
2023/07/02 06:06:05;;;;;;;20.77;12.40;;;;;;;21.53;81.02;94288.78;4939743;29;20254;-81
2023/07/02 06:08:31;;;;;;;27.40;16.75;;;;;;;21.85;79.53;94287.97;4939752;29;20183;-79
2023/07/02 06:10:56;;;;;;;34.78;18.83;;;;;;;22.16;78.48;94286.34;4939819;29;20211;-79
2023/07/02 06:13:22;;;;;;;12.80;8.30;;;;;;;22.32;76.47;94268.06;4939922;29;20749;-79
2023/07/02 06:15:47;;;;;;;16.23;8.48;;;;;;;22.16;75.55;94235.41;4939776;29;20681;-85
2023/07/02 06:18:13;;;;;;;14.55;7.20;;;;;;;22.39;74.93;94267.69;4939882;29;20250;-82
2023/07/02 06:20:38;;;;;;;11.88;6.90;;;;;;;22.35;75.25;94258.66;4940593;29;20187;-83
2023/07/02 06:23:04;;;;;;;11.73;7.70;;;;;;;22.23;74.94;94263.72;4940877;29;20166;-81
2023/07/02 06:25:29;;;;;;;11.85;6.45;;;;;;;22.11;75.23;94256.16;4939699;29;20194;-81
2023/07/02 06:27:58;;;;;;;10.52;5.85;;;;;;;21.90;75.08;94246.88;4939638;29;20183;-81
2023/07/02 06:30:26;;;;;;;17.38;6.80;;;;;;;21.71;76.41;94252.31;4937299;29;20686;-81
2023/07/02 06:32:52;;;;;;;11.93;7.03;;;;;;;21.76;76.66;94254.91;4934595;29;20600;-81
2023/07/02 06:35:17;;;;;;;20.90;8.95;;;;;;;21.61;78.70;94212.31;4936637;29;20191;-81
2023/07/02 06:37:43;;;;;;;16.27;6.90;;;;;;;21.88;76.82;94262.47;4934284;29;20183;-81
2023/07/02 06:40:09;;;;;;;14.10;6.82;;;;;;;22.01;77.93;94257.16;4936447;29;20183;-81
2023/07/02 06:42:37;;;;;;;14.77;7.90;;;;;;;22.23;77.75;94251.09;4936440;29;20246;-81
2023/07/02 06:45:04;;;;;;;10.48;6.10;;;;;;;22.39;77.82;94222.91;4936306;29;20187;-81
2023/07/02 06:47:29;;;;;;;12.77;6.22;;;;;;;22.68;74.09;94246.69;4935104;29;20193;-81
2023/07/02 06:49:54;;;;;;;9.52;5.57;;;;;;;22.64;73.85;94243.03;4936243;29;20183;-82
2023/07/02 06:52:20;;;;;;;11.30;5.90;;;;;;;22.67;72.97;94249.66;4936034;29;20333;-81
2023/07/02 06:54:45;;;;;;;12.52;6.10;;;;;;;22.37;73.14;94202.81;4935977;29;20258;-80
2023/07/02 06:57:15;;;;;;;12.75;7.65;;;;;;;22.61;73.05;94265.09;4936272;29;20194;-81
2023/07/02 06:59:40;;;;;;;15.18;8.23;;;;;;;22.65;75.16;94266.09;4935943;29;20266;-82
2023/07/02 07:02:06;;;;;;;13.65;7.03;;;;;;;22.71;74.10;94262.19;4936182;29;20261;-81
2023/07/02 07:04:31;;;;;;;12.20;7.20;;;;;;;22.76;74.33;94246.00;4936632;29;20242;-81
2023/07/02 07:06:57;;;;;;;10.07;5.97;;;;;;;22.96;74.08;94266.25;4936973;29;20167;-81
2023/07/02 07:09:22;;;;;;;15.38;6.68;;;;;;;22.86;73.33;94235.03;4936429;29;21037;-81
2023/07/02 07:11:48;;;;;;;10.52;6.32;;;;;;;23.17;72.84;94262.00;4935708;29;20594;-81
2023/07/02 07:14:13;;;;;;;13.23;6.32;;;;;;;23.26;72.02;94262.09;4934515;29;20266;-81
2023/07/02 07:16:39;;;;;;;15.85;5.85;;;;;;;23.68;73.61;94264.31;4935922;29;20647;-81
2023/07/02 07:19:05;;;;;;;14.57;6.20;;;;;;;24.31;70.83;94270.47;4935755;29;20202;-81
2023/07/02 07:21:30;;;;;;;11.23;6.05;;;;;;;24.77;68.56;94256.50;4935858;29;20210;-81
2023/07/02 07:23:56;;;;;;;12.65;7.00;;;;;;;25.07;67.09;94262.94;4935737;29;20203;-81
2023/07/02 07:26:21;;;;;;;11.45;6.32;;;;;;;24.83;64.86;94239.09;4935716;29;20194;-82
2023/07/02 07:28:47;;;;;;;9.82;5.68;;;;;;;24.95;64.63;94250.06;4935539;29;20194;-81
2023/07/02 07:31:12;;;;;;;10.85;5.25;;;;;;;24.64;64.42;94214.38;4933814;29;20262;-82
2023/07/02 07:33:38;;;;;;;10.82;6.25;;;;;;;24.81;65.69;94260.19;4935709;29;20183;-81
2023/07/02 07:36:04;;;;;;;9.07;5.20;;;;;;;24.96;64.82;94257.06;4935359;29;20207;-82
2023/07/02 07:38:29;;;;;;;10.60;5.00;;;;;;;25.63;67.68;94255.78;4933364;29;20242;-81
2023/07/02 07:40:55;;;;;;;10.13;5.47;;;;;;;26.38;62.64;94252.41;4935830;29;20309;-82
2023/07/02 07:43:20;;;;;;;11.45;5.78;;;;;;;26.79;61.77;94240.13;4936373;29;20207;-81
2023/07/02 07:45:45;;;;;;;11.57;5.50;;;;;;;26.74;60.10;94219.50;4936136;29;20175;-81
2023/07/02 07:48:11;;;;;;;12.52;5.78;;;;;;;27.09;58.58;94239.00;4935420;29;20675;-82
2023/07/02 07:50:36;;;;;;;9.95;6.00;;;;;;;27.00;58.36;94249.84;4935362;29;20214;-82
2023/07/02 07:53:02;;;;;;;7.78;5.32;;;;;;;26.89;59.60;94232.44;4935276;29;20266;-81
2023/07/02 07:55:27;;;;;;;10.05;5.68;;;;;;;26.99;60.17;94245.56;4935185;29;20186;-81
2023/07/02 07:57:53;;;;;;;14.15;5.50;;;;;;;27.22;59.43;94259.56;4935059;29;20179;-81
2023/07/02 08:00:18;;;;;;;12.02;5.70;;;;;;;27.71;60.78;94257.88;4935159;29;20199;-81
2023/07/02 08:02:46;;;;;;;12.20;6.10;;;;;;;27.76;57.19;94221.75;4934832;29;20234;-80
2023/07/02 08:05:12;;;;;;;9.88;5.07;;;;;;;28.13;57.84;94245.03;4933132;29;20238;-82
2023/07/02 08:07:40;;;;;;;9.90;5.43;;;;;;;28.19;55.25;94245.66;4934316;29;20222;-84
2023/07/02 08:10:07;;;;;;;9.40;5.43;;;;;;;28.04;56.20;94263.28;4935342;29;20267;-84
2023/07/02 08:12:33;;;;;;;10.13;5.70;;;;;;;27.86;56.86;94199.63;4935902;29;20637;-86
2023/07/02 08:14:58;;;;;;;13.52;5.72;;;;;;;28.31;56.40;94221.28;4934579;29;20175;-89
2023/07/02 08:17:23;;;;;;;14.75;5.95;;;;;;;28.04;54.78;94200.22;4950258;29;20175;-90
2023/07/02 08:19:49;;;;;;;9.55;5.40;;;;;;;28.59;54.30;94250.41;4935671;29;20635;-86
2023/07/02 08:22:15;;;;;;;9.50;5.28;;;;;;;28.17;55.33;94237.06;4936110;29;20156;-92
2023/07/02 08:24:40;;;;;;;9.82;5.38;;;;;;;27.62;55.92;94251.78;4934223;29;20265;-88
2023/07/02 08:27:06;;;;;;;7.80;4.97;;;;;;;27.45;58.08;94230.25;4933953;29;20178;-90
2023/07/02 08:29:32;;;;;;;9.27;5.90;;;;;;;27.74;60.34;94207.75;4950208;29;20167;-88
2023/07/02 08:31:58;;;;;;;8.73;5.18;;;;;;;27.70;55.24;94248.19;4935833;29;20192;-83
2023/07/02 08:34:24;;;;;;;10.35;5.35;;;;;;;27.04;57.76;94221.06;4935284;29;20171;-82
2023/07/02 08:36:51;;;;;;;10.75;5.32;;;;;;;26.88;56.97;94232.75;4935488;29;20236;-83
2023/07/02 08:39:17;;;;;;;9.77;5.32;;;;;;;26.74;60.51;94207.91;4934756;29;20203;-85
2023/07/02 08:41:44;;;;;;;7.55;5.25;;;;;;;26.60;58.42;94203.53;4934419;29;20214;-83
2023/07/02 08:44:11;;;;;;;15.00;5.03;;;;;;;27.32;58.43;94245.66;4949325;29;20278;-84
2023/07/02 08:46:36;;;;;;;10.60;5.55;;;;;;;27.28;58.18;94225.81;4934444;29;20214;-83
2023/07/02 08:49:02;;;;;;;12.63;4.95;;;;;;;27.09;58.90;94209.25;4934520;29;20659;-83
2023/07/02 08:51:27;;;;;;;8.85;4.97;;;;;;;27.28;59.92;94198.75;4934007;29;20203;-81
2023/07/02 08:53:54;;;;;;;9.07;5.30;;;;;;;27.09;57.23;94197.66;4933256;29;20650;-83
2023/07/02 08:56:19;;;;;;;6.95;5.05;;;;;;;26.96;57.75;94202.22;4934103;29;20182;-84
2023/07/02 08:58:45;;;;;;;9.45;5.20;;;;;;;27.20;59.33;94229.38;4933988;29;20190;-83
2023/07/02 09:01:12;;;;;;;10.00;5.60;;;;;;;26.93;57.23;94224.47;4934201;29;20173;-85
2023/07/02 09:03:38;;;;;;;8.32;4.65;;;;;;;26.60;58.78;94173.84;4934593;29;20697;-84
2023/07/02 09:06:05;;;;;;;11.57;5.07;;;;;;;26.68;59.31;94228.91;4934780;29;20226;-83
2023/07/02 09:08:33;;;;;;;10.52;6.10;;;;;;;26.50;58.46;94232.81;4949061;29;20559;-82
2023/07/02 09:11:05;;;;;;;6.22;4.78;;;;;;;26.15;59.37;94184.38;4933835;29;20258;-84
2023/07/02 09:13:31;;;;;;;8.10;4.60;;;;;;;25.77;61.50;94195.16;4933945;29;20190;-83
2023/07/02 09:15:56;;;;;;;9.90;5.40;;;;;;;26.29;60.93;94220.06;4934802;29;20559;-81
2023/07/02 09:18:25;;;;;;;11.20;4.72;;;;;;;26.74;61.53;94218.69;4934623;29;20197;-82
2023/07/02 09:20:54;;;;;;;9.57;4.55;;;;;;;26.80;58.10;94217.41;4934664;29;20234;-81
2023/07/02 09:23:20;;;;;;;6.22;4.50;;;;;;;26.61;57.32;94202.44;4934447;29;20178;-80
2023/07/02 09:25:46;;;;;;;6.03;4.03;;;;;;;26.94;60.93;94221.47;4933808;29;20262;-80
2023/07/02 09:28:19;;;;;;;8.30;4.75;;;;;;;26.88;59.01;94205.75;4933732;29;20189;-81
2023/07/02 09:30:57;;;;;;;7.30;4.75;;;;;;;26.50;59.82;94195.03;4933022;29;20215;-81
2023/07/02 09:33:28;;;;;;;8.63;5.13;;;;;;;26.60;59.46;94219.75;4933120;29;20197;-81
2023/07/02 09:35:55;;;;;;;8.40;5.10;;;;;;;26.44;61.46;94228.75;4930400;29;20690;-82
2023/07/02 09:38:21;;;;;;;7.65;5.13;;;;;;;25.82;60.89;94173.41;4929817;29;20191;-81
2023/07/02 09:40:51;;;;;;;9.15;4.95;;;;;;;25.65;61.14;94197.75;4932648;29;20186;-86
2023/07/02 09:43:18;;;;;;;10.98;4.85;;;;;;;25.68;61.37;94234.88;4947974;29;20194;-82
2023/07/02 09:45:46;;;;;;;8.73;4.68;;;;;;;25.53;62.14;94190.28;4933522;29;20175;-82
2023/07/02 09:48:15;;;;;;;5.88;4.30;;;;;;;25.69;61.11;94222.16;4933916;29;20197;-83
2023/07/02 09:50:46;;;;;;;8.02;4.32;;;;;;;25.92;61.75;94213.53;4928512;29;20625;-79
2023/07/02 09:53:13;;;;;;;7.32;4.85;;;;;;;26.16;64.08;94221.06;4930622;29;20182;-80
2023/07/02 09:55:41;;;;;;;11.32;5.57;;;;;;;26.23;65.40;94210.53;4931145;29;20698;-81
2023/07/02 09:58:07;;;;;;;6.78;4.38;;;;;;;26.41;64.34;94218.56;4932500;29;20187;-81
2023/07/02 10:00:33;;;;;;;6.03;4.43;;;;;;;26.56;58.85;94210.69;4932366;29;21084;-82
2023/07/02 10:03:00;;;;;;;6.53;4.07;;;;;;;26.78;60.68;94216.94;4932719;29;20214;-80
2023/07/02 10:05:30;;;;;;;6.30;4.05;;;;;;;26.92;59.29;94188.56;4950202;28;20225;-83
2023/07/02 10:08:16;;;;;;;6.53;4.20;;;;;;;27.31;55.86;94216.25;4936928;29;20197;-83
2023/07/02 10:10:42;;;;;;;4.80;3.55;;;;;;;27.42;53.83;94210.06;4936771;29;20233;-83
2023/07/02 10:13:08;;;;;;;4.57;3.35;;;;;;;26.94;55.59;94162.00;4937495;29;20667;-83
2023/07/02 10:15:37;;;;;;;8.25;4.70;;;;;;;27.26;55.60;94201.00;4933654;29;20768;-83
2023/07/02 10:18:04;;;;;;;5.03;3.95;;;;;;;27.31;59.42;94181.09;4934424;29;20740;-84
2023/07/02 10:20:41;;;;;;;8.75;4.55;;;;;;;27.38;56.36;94195.66;4933956;29;20718;-83
2023/07/02 10:23:09;;;;;;;8.18;4.60;;;;;;;27.25;56.73;94185.09;4934029;29;20182;-83
2023/07/02 10:25:37;;;;;;;8.52;4.45;;;;;;;27.21;56.77;94186.91;4933142;29;20175;-83
2023/07/02 10:28:15;;;;;;;7.53;4.38;;;;;;;27.00;55.75;94185.00;4933872;29;20214;-83
2023/07/02 10:30:42;;;;;;;7.03;4.82;;;;;;;26.87;57.43;94180.63;4932149;29;20281;-83
2023/07/02 10:33:11;;;;;;;8.80;4.82;;;;;;;26.57;56.53;94171.78;4933458;29;20185;-83
2023/07/02 10:35:37;;;;;;;7.00;4.63;;;;;;;26.23;59.02;94113.38;4933820;29;20186;-83
2023/07/02 10:38:03;;;;;;;7.93;4.63;;;;;;;26.38;57.51;94130.16;4934164;29;20576;-83
2023/07/02 10:40:29;;;;;;;5.22;3.60;;;;;;;26.65;55.50;94184.44;4933942;29;20186;-83
2023/07/02 10:42:56;;;;;;;6.55;3.97;;;;;;;26.54;56.11;94183.25;4935699;29;20191;-84
2023/07/02 10:45:31;;;;;;;6.30;4.50;;;;;;;26.48;56.53;94181.84;4935601;29;20183;-83
2023/07/02 10:47:56;;;;;;;8.68;4.53;;;;;;;26.37;57.86;94152.88;4935486;29;20278;-84
2023/07/02 10:50:23;;;;;;;9.60;4.03;;;;;;;26.80;57.00;94185.00;4934769;29;20278;-83
2023/07/02 10:52:52;;;;;;;6.70;3.67;;;;;;;26.66;55.51;94153.63;4935292;29;20179;-84
2023/07/02 10:55:24;;;;;;;7.93;3.88;;;;;;;27.02;56.05;94182.78;4936746;29;20706;-83
2023/07/02 10:58:01;;;;;;;6.22;3.88;;;;;;;27.07;55.25;94151.28;4936955;29;20167;-83
2023/07/02 11:00:27;;;;;;;5.70;4.22;;;;;;;27.20;59.27;94150.19;4935669;29;20657;-84
2023/07/02 11:02:52;;;;;;;5.80;2.75;;;;;;;26.87;51.22;94121.22;4936662;29;20163;-84
2023/07/02 11:05:18;;;;;;;6.32;3.50;;;;;;;27.11;52.57;94165.69;4936801;29;20227;-84
2023/07/02 11:07:44;;;;;;;6.72;3.78;;;;;;;27.02;53.40;94153.03;4936590;29;20176;-84
2023/07/02 11:10:17;;;;;;;5.32;3.30;;;;;;;26.99;54.25;94134.78;4937030;29;20164;-83
2023/07/02 11:12:42;;;;;;;6.18;3.50;;;;;;;27.31;54.80;94146.75;4951352;29;20186;-83
2023/07/02 11:15:17;;;;;;;6.53;4.00;;;;;;;27.73;54.34;94173.69;4936342;29;20175;-84
2023/07/02 11:17:43;;;;;;;4.97;3.53;;;;;;;27.46;52.21;94120.19;4935688;29;20557;-84
2023/07/02 11:20:10;;;;;;;8.73;3.97;;;;;;;27.61;55.74;94139.28;4936333;29;20160;-83
2023/07/02 11:22:37;;;;;;;5.45;3.58;;;;;;;27.81;53.81;94178.22;4935838;29;20182;-83
2023/07/02 11:25:28;;;;;;;5.07;3.38;;;;;;;27.59;55.74;94184.81;4935276;29;20187;-81
2023/07/02 11:28:06;;;;;;;13.25;4.38;;;;;;;27.20;58.28;94175.31;4932457;29;20590;-81